Time;durP1;ratioP1;P1;durP2;ratioP2;P2;SDS_P1;SDS_P2;PMS_P1;PMS_P2;Temp;Humidity;BMP_temperature;BMP_pressure;BME280_temperature;BME280_humidity;BME280_pressure;Samples;Min_cycle;Max_cycle;Signal;HPM_P1;HPM_P2
2023/06/02 00:01:18;;;;;;;4.10;1.63;;;;;;;9.48;100.00;102287.63;5012738;28;20147;-75
2023/06/02 00:04:02;;;;;;;4.97;1.50;;;;;;;9.46;100.00;102278.81;4996634;28;20072;-75
2023/06/02 00:06:47;;;;;;;9.18;1.58;;;;;;;9.45;100.00;102279.72;4996277;28;20670;-75
2023/06/02 00:09:36;;;;;;;3.97;1.15;;;;;;;9.44;100.00;102268.28;5011032;28;20044;-75
2023/06/02 00:12:20;;;;;;;4.80;1.20;;;;;;;9.46;100.00;102273.53;4996761;28;20068;-76
2023/06/02 00:15:08;;;;;;;6.40;1.40;;;;;;;9.46;100.00;102268.25;5010865;28;20083;-75
2023/06/02 00:17:52;;;;;;;6.53;1.75;;;;;;;9.46;100.00;102269.13;5012050;28;20412;-75
2023/06/02 00:20:37;;;;;;;4.07;1.40;;;;;;;9.47;100.00;102268.22;4994884;28;20048;-75
2023/06/02 00:23:22;;;;;;;5.20;1.25;;;;;;;9.47;100.00;102268.22;4996172;28;20055;-76
2023/06/02 00:26:06;;;;;;;4.00;1.25;;;;;;;9.47;100.00;102262.94;5011325;28;20155;-76
2023/06/02 00:28:51;;;;;;;3.03;0.98;;;;;;;9.48;100.00;102262.03;5004745;28;20064;-76
2023/06/02 00:31:35;;;;;;;5.15;1.45;;;;;;;9.48;100.00;102255.91;4989279;28;20049;-75
2023/06/02 00:34:19;;;;;;;4.25;1.42;;;;;;;9.49;100.00;102260.28;4977212;28;20049;-75
2023/06/02 00:37:04;;;;;;;6.18;1.17;;;;;;;9.49;100.00;102252.34;4991489;28;20069;-75
2023/06/02 00:39:48;;;;;;;4.90;1.33;;;;;;;9.49;100.00;102262.91;4975574;28;20123;-75
2023/06/02 00:42:32;;;;;;;7.22;1.73;;;;;;;9.47;100.00;102255.00;4991909;28;20170;-75
2023/06/02 00:45:16;;;;;;;4.85;1.52;;;;;;;9.47;100.00;102252.38;4988627;28;20675;-76
2023/06/02 00:48:01;;;;;;;6.10;1.40;;;;;;;9.46;100.00;102247.97;4990411;28;20080;-76
2023/06/02 00:50:45;;;;;;;4.65;1.40;;;;;;;9.47;100.00;102259.41;4990669;28;20215;-75
2023/06/02 00:53:30;;;;;;;3.22;1.33;;;;;;;9.46;100.00;102261.19;4990189;28;20040;-75
2023/06/02 00:56:14;;;;;;;8.13;1.45;;;;;;;9.45;100.00;102253.28;4962319;28;21633;-75
2023/06/02 00:58:59;;;;;;;4.80;1.30;;;;;;;9.45;100.00;102250.66;4990866;28;20241;-75
2023/06/02 01:01:45;;;;;;;4.50;1.30;;;;;;;9.45;100.00;102256.81;4975673;28;20991;-75
2023/06/02 01:04:30;;;;;;;4.93;1.45;;;;;;;9.46;100.00;102252.38;4992631;28;20105;-74
2023/06/02 01:07:22;;;;;;;5.13;1.55;;;;;;;9.47;100.00;102241.78;4986221;28;20073;-74
2023/06/02 01:10:08;;;;;;;5.55;1.30;;;;;;;9.46;100.00;102250.63;4988875;28;20073;-75
2023/06/02 01:12:54;;;;;;;5.65;1.30;;;;;;;9.47;100.00;102249.72;4990515;28;20183;-75
2023/06/02 01:15:38;;;;;;;4.05;1.23;;;;;;;9.50;100.00;102248.78;4975237;28;20037;-74
2023/06/02 01:18:25;;;;;;;5.32;1.25;;;;;;;9.49;100.00;102252.34;4989217;28;20848;-74
2023/06/02 01:21:09;;;;;;;7.43;1.70;;;;;;;9.49;100.00;102253.19;4988048;28;20061;-75
2023/06/02 01:23:54;;;;;;;6.63;1.20;;;;;;;9.49;100.00;102262.91;4990879;28;20058;-75
2023/06/02 01:26:38;;;;;;;8.00;1.67;;;;;;;9.45;100.00;102255.94;4991465;28;22088;-74
2023/06/02 01:29:22;;;;;;;9.43;1.50;;;;;;;9.45;100.00;102255.94;5002994;28;20214;-74
2023/06/02 01:32:28;;;;;;;5.32;1.50;;;;;;;9.45;100.00;102255.94;5011368;28;20169;-75
2023/06/02 01:35:13;;;;;;;5.63;1.35;;;;;;;9.43;100.00;102255.94;5012746;28;20424;-74
2023/06/02 01:37:59;;;;;;;5.95;1.25;;;;;;;9.38;100.00;102257.84;5009625;28;20063;-75
2023/06/02 01:40:43;;;;;;;6.22;1.40;;;;;;;9.36;100.00;102249.91;5008552;28;20507;-75
2023/06/02 01:43:29;;;;;;;10.57;1.65;;;;;;;9.35;100.00;102255.22;4982494;28;21290;-75
2023/06/02 01:46:16;;;;;;;4.53;1.50;;;;;;;9.32;100.00;102256.16;4995654;28;20246;-76
2023/06/02 01:49:00;;;;;;;7.03;1.65;;;;;;;9.29;100.00;102253.56;4997214;28;20110;-74
2023/06/02 01:51:45;;;;;;;6.38;1.58;;;;;;;9.29;100.00;102250.03;5013151;28;20175;-74
2023/06/02 01:54:29;;;;;;;5.55;1.42;;;;;;;9.27;100.00;102250.09;4995633;28;20044;-75
2023/06/02 01:57:15;;;;;;;6.05;1.80;;;;;;;9.26;100.00;102244.81;5012363;28;20080;-74
2023/06/02 01:59:59;;;;;;;6.50;1.60;;;;;;;9.24;100.00;102255.41;4993609;28;20064;-74
2023/06/02 02:02:43;;;;;;;4.82;1.75;;;;;;;9.23;100.00;102248.38;4996865;28;20974;-75
2023/06/02 02:05:27;;;;;;;6.30;1.30;;;;;;;9.21;100.00;102244.91;5012114;28;20174;-75
2023/06/02 02:08:12;;;;;;;6.20;1.60;;;;;;;9.20;100.00;102243.13;5010759;28;20949;-74
2023/06/02 02:10:56;;;;;;;4.38;1.58;;;;;;;9.19;100.00;102244.03;5012144;28;20065;-74
2023/06/02 02:13:40;;;;;;;3.60;1.30;;;;;;;9.19;100.00;102246.69;5008825;28;20057;-75
2023/06/02 02:16:24;;;;;;;10.15;1.85;;;;;;;9.17;100.00;102244.09;5011292;28;20095;-75
2023/06/02 02:19:08;;;;;;;4.60;1.77;;;;;;;9.15;100.00;102237.94;5011235;28;20994;-76
2023/06/02 02:21:52;;;;;;;3.85;1.77;;;;;;;9.14;100.00;102243.28;4996978;28;20196;-75
2023/06/02 02:24:37;;;;;;;9.60;1.80;;;;;;;9.10;100.00;102242.47;4995149;28;20124;-75
2023/06/02 02:27:22;;;;;;;7.95;1.83;;;;;;;9.10;100.00;102250.38;4996842;28;20190;-76
2023/06/02 02:30:07;;;;;;;6.53;2.03;;;;;;;9.09;100.00;102253.91;5008186;28;20166;-75
2023/06/02 02:32:52;;;;;;;4.38;1.48;;;;;;;9.08;100.00;102253.03;4994499;28;20723;-75
2023/06/02 02:35:36;;;;;;;3.65;1.50;;;;;;;9.09;100.00;102254.78;5012292;28;20044;-75
2023/06/02 02:38:19;;;;;;;10.88;1.85;;;;;;;9.10;100.00;102258.31;5009474;28;20055;-75
2023/06/02 02:41:03;;;;;;;10.55;1.88;;;;;;;9.08;100.00;102245.13;5009995;28;20543;-75
2023/06/02 02:43:48;;;;;;;5.45;1.52;;;;;;;9.09;100.00;102248.59;5010308;28;20183;-75
2023/06/02 02:46:32;;;;;;;7.70;1.80;;;;;;;9.09;100.00;102236.28;4995381;28;20696;-75
2023/06/02 02:49:16;;;;;;;6.95;1.58;;;;;;;9.10;100.00;102240.66;5011671;28;20060;-75
2023/06/02 02:52:00;;;;;;;8.20;1.60;;;;;;;9.10;100.00;102243.31;4996182;28;20115;-75
2023/06/02 02:54:44;;;;;;;8.00;1.83;;;;;;;9.14;100.00;102240.63;5010684;28;20064;-75
2023/06/02 02:57:28;;;;;;;10.30;1.60;;;;;;;9.14;100.00;102245.91;5011571;28;20084;-75
2023/06/02 03:00:13;;;;;;;7.22;1.40;;;;;;;9.14;100.00;102244.13;5011154;28;20103;-75
2023/06/02 03:03:01;;;;;;;5.80;1.30;;;;;;;9.16;100.00;102238.81;4982610;28;20044;-75
2023/06/02 03:05:45;;;;;;;5.35;1.50;;;;;;;9.16;100.00;102239.69;5011416;28;20103;-75
2023/06/02 03:08:29;;;;;;;6.82;1.33;;;;;;;9.17;100.00;102241.44;5009463;28;20059;-75
2023/06/02 03:11:14;;;;;;;3.97;1.40;;;;;;;9.20;100.00;102241.38;4978927;28;20053;-75
2023/06/02 03:13:58;;;;;;;8.23;1.52;;;;;;;9.22;100.00;102247.50;5009823;28;20099;-75
2023/06/02 03:16:44;;;;;;;6.57;1.65;;;;;;;9.24;100.00;102242.19;5011680;28;20047;-75
2023/06/02 03:19:29;;;;;;;5.30;1.63;;;;;;;9.25;100.00;102249.22;4996184;28;20120;-75
2023/06/02 03:22:13;;;;;;;7.57;1.60;;;;;;;9.26;100.00;102245.69;5011298;28;20130;-75
2023/06/02 03:24:57;;;;;;;7.50;1.63;;;;;;;9.26;100.00;102243.03;4993959;28;20429;-75
2023/06/02 03:27:41;;;;;;;5.18;1.35;;;;;;;9.29;100.00;102250.94;4995308;28;20047;-75
2023/06/02 03:30:25;;;;;;;8.02;1.83;;;;;;;9.29;100.00;102252.69;4995031;28;20084;-75
2023/06/02 03:33:09;;;;;;;10.18;2.42;;;;;;;9.31;100.00;102248.28;5011589;28;20060;-75
2023/06/02 03:35:53;;;;;;;8.70;1.60;;;;;;;9.31;100.00;102249.13;5010806;28;20060;-75
2023/06/02 03:38:37;;;;;;;10.32;1.80;;;;;;;9.33;100.00;102243.81;4993023;28;20040;-75
2023/06/02 03:41:22;;;;;;;6.55;1.65;;;;;;;9.32;100.00;102244.72;5011079;28;20045;-76
2023/06/02 03:44:06;;;;;;;7.95;1.67;;;;;;;9.32;100.00;102245.56;4992117;28;20048;-75
2023/06/02 03:46:50;;;;;;;9.10;1.70;;;;;;;9.34;100.00;102243.78;4989599;28;20064;-76
2023/06/02 03:49:36;;;;;;;5.43;1.63;;;;;;;9.34;100.00;102234.97;5012492;28;20623;-75
2023/06/02 03:52:20;;;;;;;7.75;1.85;;;;;;;9.33;100.00;102239.38;5012589;28;20053;-75
2023/06/02 03:55:05;;;;;;;7.90;1.73;;;;;;;9.35;100.00;102236.72;5012680;28;20045;-75
2023/06/02 03:57:49;;;;;;;6.03;1.38;;;;;;;9.37;100.00;102249.00;5013849;28;20119;-75
2023/06/02 04:00:33;;;;;;;7.43;1.73;;;;;;;9.40;100.00;102247.22;5011602;28;20056;-75
2023/06/02 04:03:19;;;;;;;5.60;1.77;;;;;;;9.43;100.00;102237.44;5011981;28;20135;-76
2023/06/02 04:06:07;;;;;;;7.05;1.60;;;;;;;9.47;100.00;102248.84;5000173;28;20049;-75
2023/06/02 04:08:51;;;;;;;5.50;1.48;;;;;;;9.50;100.00;102246.16;5003220;28;20579;-75
2023/06/02 04:11:35;;;;;;;7.22;1.45;;;;;;;9.52;100.00;102241.69;5013798;28;20585;-75
2023/06/02 04:14:19;;;;;;;8.80;1.80;;;;;;;9.53;100.00;102246.09;5010905;28;20061;-75
2023/06/02 04:17:03;;;;;;;8.77;1.95;;;;;;;9.56;100.00;102245.16;5011282;28;20099;-75
2023/06/02 04:19:47;;;;;;;6.93;1.50;;;;;;;9.57;100.00;102246.91;5011298;28;20055;-76
2023/06/02 04:22:32;;;;;;;6.20;1.48;;;;;;;9.58;100.00;102241.59;5011783;28;20137;-76
2023/06/02 04:25:16;;;;;;;9.35;2.03;;;;;;;9.61;100.00;102245.94;5001044;28;20151;-75
2023/06/02 04:28:00;;;;;;;8.35;2.00;;;;;;;9.63;100.00;102237.09;5009995;28;20056;-79
2023/06/02 04:30:44;;;;;;;7.35;1.50;;;;;;;9.66;100.00;102246.75;4994653;28;20712;-76
2023/06/02 04:33:28;;;;;;;9.55;1.40;;;;;;;9.69;100.00;102245.81;4976594;28;20775;-76
2023/06/02 04:36:12;;;;;;;7.22;1.50;;;;;;;9.71;100.00;102242.25;4976966;28;20057;-76
2023/06/02 04:38:57;;;;;;;9.77;2.25;;;;;;;9.74;100.00;102247.47;4992078;28;20108;-76
2023/06/02 04:41:41;;;;;;;5.20;1.48;;;;;;;9.74;100.00;102252.75;4989863;28;20600;-76
2023/06/02 04:44:24;;;;;;;6.90;2.38;;;;;;;9.78;100.00;102254.44;4990218;28;20151;-75
2023/06/02 04:47:08;;;;;;;4.50;1.50;;;;;;;9.80;100.00;102254.38;4989257;28;20112;-76
2023/06/02 04:49:54;;;;;;;4.10;1.30;;;;;;;9.82;100.00;102255.25;4991079;28;20096;-75
2023/06/02 04:52:38;;;;;;;8.20;1.40;;;;;;;9.84;100.00;102258.72;4977370;28;20045;-76
2023/06/02 04:55:23;;;;;;;8.85;1.60;;;;;;;9.89;100.00;102263.91;4992213;28;20036;-75
2023/06/02 04:58:07;;;;;;;9.38;1.58;;;;;;;9.91;100.00;102259.47;4991848;28;20136;-76
2023/06/02 05:00:51;;;;;;;3.50;1.50;;;;;;;9.92;100.00;102259.44;4974961;28;20189;-75
2023/06/02 05:03:35;;;;;;;9.70;2.65;;;;;;;9.96;100.00;102268.19;4987184;28;21983;-76
2023/06/02 05:06:19;;;;;;;6.80;1.88;;;;;;;9.98;100.00;102265.53;4990846;28;20140;-75
2023/06/02 05:09:03;;;;;;;7.20;1.60;;;;;;;10.01;100.00;102265.44;4976115;28;20065;-75
2023/06/02 05:11:47;;;;;;;9.82;1.73;;;;;;;10.03;100.00;102268.94;4990493;28;20096;-76
2023/06/02 05:14:31;;;;;;;5.25;1.60;;;;;;;10.07;100.00;102267.13;4991385;28;20044;-75
2023/06/02 05:17:23;;;;;;;9.57;1.70;;;;;;;10.08;100.00;102272.34;4974394;28;20618;-76
2023/06/02 05:20:07;;;;;;;7.30;1.42;;;;;;;10.10;100.00;102269.69;4968041;28;20112;-76
2023/06/02 05:22:51;;;;;;;6.75;1.58;;;;;;;10.12;100.00;102274.03;4989825;28;20112;-76
2023/06/02 05:25:35;;;;;;;5.68;1.77;;;;;;;10.13;100.00;102267.84;4960439;28;20420;-76
2023/06/02 05:28:19;;;;;;;4.47;1.65;;;;;;;10.18;100.00;102273.03;4989974;28;20080;-76
2023/06/02 05:31:04;;;;;;;6.90;2.22;;;;;;;10.22;100.00;102265.91;5006976;28;20139;-75
2023/06/02 05:33:48;;;;;;;3.70;1.45;;;;;;;10.22;100.00;102258.84;4994363;28;20056;-75
2023/06/02 05:36:32;;;;;;;10.48;2.10;;;;;;;10.26;100.00;102271.13;5010410;28;20460;-75
2023/06/02 05:39:16;;;;;;;6.32;2.30;;;;;;;10.29;100.00;102270.16;5006938;28;20055;-76
2023/06/02 05:42:00;;;;;;;5.70;1.63;;;;;;;10.32;100.00;102267.47;5009718;28;20519;-76
2023/06/02 05:44:43;;;;;;;6.38;1.80;;;;;;;10.36;100.00;102265.63;5008314;28;20111;-75
2023/06/02 05:47:30;;;;;;;6.35;2.28;;;;;;;10.37;100.00;102265.59;5007391;28;20053;-76
2023/06/02 05:50:14;;;;;;;8.63;2.38;;;;;;;10.38;100.00;102262.03;5010186;28;20104;-76
2023/06/02 05:52:59;;;;;;;9.70;1.88;;;;;;;10.40;100.00;102262.00;5008059;28;20059;-75
2023/06/02 05:55:43;;;;;;;8.65;1.90;;;;;;;10.41;100.00;102269.91;5008900;28;20091;-75
2023/06/02 05:58:27;;;;;;;7.63;2.42;;;;;;;10.42;100.00;102266.38;4990547;28;20049;-76
2023/06/02 06:01:12;;;;;;;8.07;2.13;;;;;;;10.45;100.00;102266.31;5008985;28;20056;-75
2023/06/02 06:03:56;;;;;;;6.90;2.25;;;;;;;10.50;100.00;102271.50;5008387;28;20183;-75
2023/06/02 06:06:40;;;;;;;8.10;2.15;;;;;;;10.54;100.00;102272.31;5008804;28;20056;-75
2023/06/02 06:09:24;;;;;;;6.50;1.75;;;;;;;10.56;100.00;102268.72;5011057;28;20108;-75
2023/06/02 06:12:08;;;;;;;7.78;2.20;;;;;;;10.57;100.00;102272.25;5012864;28;20132;-75
2023/06/02 06:14:52;;;;;;;5.13;1.90;;;;;;;10.60;100.00;102269.53;5009708;28;20060;-76
2023/06/02 06:17:49;;;;;;;7.97;2.45;;;;;;;10.62;100.00;102266.84;4997762;28;20523;-75
2023/06/02 06:20:34;;;;;;;6.75;2.10;;;;;;;10.66;100.00;102264.09;5009171;28;20060;-75
2023/06/02 06:23:18;;;;;;;7.40;2.00;;;;;;;10.72;100.00;102269.25;5002180;28;20087;-76
2023/06/02 06:26:02;;;;;;;7.72;1.90;;;;;;;10.75;100.00;102281.56;4981215;28;20064;-76
2023/06/02 06:28:46;;;;;;;8.88;2.03;;;;;;;10.80;100.00;102266.44;5011488;28;20111;-76
2023/06/02 06:31:32;;;;;;;7.53;2.05;;;;;;;10.87;100.00;102272.44;4991819;28;20087;-76
2023/06/02 06:34:16;;;;;;;9.13;2.13;;;;;;;10.86;100.00;102271.56;5013251;28;20055;-76
2023/06/02 06:37:00;;;;;;;9.63;2.03;;;;;;;10.93;100.00;102274.94;4997368;28;20100;-76
2023/06/02 06:39:44;;;;;;;9.15;2.97;;;;;;;10.96;100.00;102271.34;5009428;28;20412;-76
2023/06/02 06:42:28;;;;;;;9.35;2.35;;;;;;;10.97;100.00;102268.66;5010400;28;22202;-75
2023/06/02 06:45:12;;;;;;;9.25;2.05;;;;;;;11.02;100.00;102276.50;5008264;28;22071;-75
2023/06/02 06:47:56;;;;;;;10.15;2.45;;;;;;;11.09;100.00;102277.22;5010744;28;20056;-76
2023/06/02 06:50:40;;;;;;;11.43;2.53;;;;;;;11.15;100.00;102271.75;5011610;28;20717;-75
2023/06/02 06:53:24;;;;;;;8.13;2.58;;;;;;;11.24;100.00;102282.13;5011824;28;20122;-75
2023/06/02 06:56:08;;;;;;;9.38;2.40;;;;;;;11.33;100.00;102274.88;5011061;28;20044;-75
2023/06/02 06:58:52;;;;;;;6.60;2.15;;;;;;;11.43;100.00;102279.00;4996341;28;20044;-76
2023/06/02 07:01:37;;;;;;;12.63;2.72;;;;;;;11.50;100.00;102274.41;5011636;28;20136;-76
2023/06/02 07:04:21;;;;;;;11.02;2.50;;;;;;;11.50;100.00;102271.78;5012492;28;20052;-76
2023/06/02 07:07:05;;;;;;;10.20;2.50;;;;;;;11.54;100.00;102278.72;4996529;28;20041;-76
2023/06/02 07:09:50;;;;;;;7.05;2.30;;;;;;;11.62;100.00;102278.53;5007136;28;20120;-76
2023/06/02 07:12:34;;;;;;;10.93;2.72;;;;;;;11.70;100.00;102279.19;4994933;28;20056;-76
2023/06/02 07:15:18;;;;;;;10.18;2.60;;;;;;;11.79;100.00;102278.06;5009037;28;20099;-76
2023/06/02 07:18:02;;;;;;;7.93;2.60;;;;;;;11.83;100.00;102282.38;5009597;28;20776;-75
2023/06/02 07:20:46;;;;;;;9.52;2.30;;;;;;;11.91;100.00;102279.50;5005340;28;20634;-82
2023/06/02 07:23:30;;;;;;;9.38;2.20;;;;;;;12.00;100.00;102287.22;5001992;28;20087;-78
2023/06/02 07:26:15;;;;;;;9.48;2.53;;;;;;;12.07;100.00;102294.13;4969222;28;20061;-82
2023/06/02 07:28:59;;;;;;;11.57;3.22;;;;;;;12.08;100.00;102295.84;4986514;28;21647;-78
2023/06/02 07:31:46;;;;;;;15.00;2.60;;;;;;;12.11;100.00;102308.16;5003994;28;21744;-77
2023/06/02 07:34:30;;;;;;;12.63;3.60;;;;;;;12.16;100.00;102306.22;4990965;28;20133;-77
2023/06/02 07:37:14;;;;;;;13.60;2.83;;;;;;;12.24;100.00;102310.47;4992215;28;20072;-77
2023/06/02 07:39:58;;;;;;;9.50;2.67;;;;;;;12.31;100.00;102307.56;5005047;28;20052;-78
2023/06/02 07:42:42;;;;;;;6.32;2.20;;;;;;;12.38;100.00;102310.06;4989771;28;20115;-78
2023/06/02 07:45:26;;;;;;;11.40;2.30;;;;;;;12.44;100.00;102307.22;4992272;28;20236;-81
2023/06/02 07:48:10;;;;;;;8.73;2.70;;;;;;;12.45;100.00;102295.69;5008662;28;20076;-80
2023/06/02 07:50:54;;;;;;;9.18;2.50;;;;;;;12.54;100.00;102290.09;4995131;28;21802;-76
2023/06/02 07:53:38;;;;;;;9.95;2.90;;;;;;;12.69;100.00;102298.50;5002654;28;21102;-77
2023/06/02 07:56:22;;;;;;;10.10;2.97;;;;;;;12.77;100.00;102292.00;4992310;28;20075;-78
2023/06/02 07:59:09;;;;;;;12.00;2.80;;;;;;;12.91;100.00;102293.34;4995456;28;20083;-86
2023/06/02 08:01:53;;;;;;;7.13;2.45;;;;;;;13.06;100.00;102294.66;5005040;28;20045;-76
2023/06/02 08:04:37;;;;;;;8.45;2.13;;;;;;;13.18;100.00;102291.59;4991867;28;20104;-77
2023/06/02 08:07:21;;;;;;;6.97;2.50;;;;;;;13.32;100.00;102295.59;4991707;28;20043;-78
2023/06/02 08:10:06;;;;;;;10.05;2.58;;;;;;;13.44;100.00;102292.50;5008635;28;20559;-77
2023/06/02 08:12:50;;;;;;;9.85;2.75;;;;;;;13.48;100.00;102297.75;4993472;28;20032;-77
2023/06/02 08:15:40;;;;;;;9.57;3.03;;;;;;;13.49;100.00;102292.38;4991358;28;20666;-79
2023/06/02 08:18:25;;;;;;;11.48;2.60;;;;;;;13.60;100.00;102292.00;4992342;28;20049;-78
2023/06/02 08:21:09;;;;;;;6.28;2.42;;;;;;;13.73;100.00;102291.56;5009982;28;20056;-77
2023/06/02 08:23:55;;;;;;;7.72;2.55;;;;;;;13.71;100.00;102297.81;4995433;28;20099;-76
2023/06/02 08:26:41;;;;;;;9.55;2.40;;;;;;;13.76;100.00;102302.09;5013656;28;20072;-76
2023/06/02 08:29:26;;;;;;;8.88;2.50;;;;;;;13.82;100.00;102300.09;5007454;28;20149;-78
2023/06/02 08:32:11;;;;;;;11.02;3.38;;;;;;;13.92;100.00;102300.63;4991174;28;20208;-77
2023/06/02 08:34:56;;;;;;;9.40;2.30;;;;;;;14.08;100.00;102302.72;4990975;28;20117;-76
2023/06/02 08:37:43;;;;;;;8.40;2.15;;;;;;;14.18;100.00;102306.78;4988961;28;20077;-75
2023/06/02 08:40:36;;;;;;;8.95;2.50;;;;;;;14.24;100.00;102306.56;4977181;28;20069;-77
2023/06/02 08:43:20;;;;;;;10.50;2.17;;;;;;;14.47;100.00;102301.25;4990401;28;20056;-77
2023/06/02 08:46:06;;;;;;;6.53;1.90;;;;;;;14.58;100.00;102299.03;4975762;28;20048;-77
2023/06/02 08:48:55;;;;;;;12.35;2.30;;;;;;;14.82;100.00;102298.16;4990609;28;20052;-78
2023/06/02 08:51:42;;;;;;;8.18;2.13;;;;;;;14.98;100.00;102299.25;4966374;28;20840;-77
2023/06/02 08:54:27;;;;;;;9.35;2.13;;;;;;;15.23;100.00;102300.03;4985091;28;20129;-77
2023/06/02 08:57:16;;;;;;;8.57;2.28;;;;;;;15.34;100.00;102304.00;4983836;28;20052;-77
2023/06/02 08:59:59;;;;;;;9.20;2.60;;;;;;;15.49;100.00;102298.94;4969006;28;20236;-76
2023/06/02 09:02:48;;;;;;;5.15;2.28;;;;;;;15.73;100.00;102293.44;4990777;28;20041;-77
2023/06/02 09:05:33;;;;;;;6.95;2.15;;;;;;;16.03;100.00;102298.41;4990724;28;20413;-77
2023/06/02 09:08:18;;;;;;;9.30;2.03;;;;;;;16.09;100.00;102299.91;4978243;28;20237;-84
2023/06/02 09:11:15;;;;;;;8.27;2.03;;;;;;;16.06;100.00;102284.91;4991620;28;20144;-75
2023/06/02 09:13:59;;;;;;;8.95;2.17;;;;;;;16.29;100.00;102299.84;4991372;28;20116;-87
2023/06/02 09:16:43;;;;;;;3.63;1.70;;;;;;;16.51;100.00;102289.97;4977758;28;20057;-84
2023/06/02 09:19:48;;;;;;;10.25;2.05;;;;;;;16.78;100.00;102287.75;4969111;28;20140;-84
2023/06/02 09:22:33;;;;;;;8.02;2.00;;;;;;;16.88;100.00;102290.00;4978363;28;20671;-88
2023/06/02 09:25:21;;;;;;;8.73;2.33;;;;;;;17.07;100.00;102295.31;4957776;28;20044;-88
2023/06/02 09:28:07;;;;;;;7.10;2.10;;;;;;;17.29;100.00;102294.22;4974868;28;20056;-84
2023/06/02 09:31:06;;;;;;;7.15;2.35;;;;;;;17.41;100.00;102293.59;4993769;28;20122;-87
2023/06/02 09:33:59;;;;;;;4.97;1.90;;;;;;;17.79;96.28;102289.84;4997785;28;20095;-87
2023/06/02 09:36:46;;;;;;;5.88;1.60;;;;;;;17.62;98.43;102296.09;5006657;28;20048;-86
2023/06/02 09:39:34;;;;;;;6.05;1.90;;;;;;;17.40;95.92;102299.91;4980211;28;22407;-87
2023/06/02 09:42:21;;;;;;;8.35;1.70;;;;;;;17.47;98.70;102295.97;5011975;28;20455;-88
2023/06/02 09:45:06;;;;;;;5.22;1.65;;;;;;;17.67;95.13;102296.72;4995315;28;20630;-89
2023/06/02 09:47:50;;;;;;;3.33;1.15;;;;;;;17.83;94.42;102291.44;5012066;28;20040;-86
2023/06/02 09:50:36;;;;;;;4.25;1.00;;;;;;;17.99;91.84;102295.97;5014304;28;20096;-88
2023/06/02 09:53:22;;;;;;;4.55;1.00;;;;;;;18.18;91.04;102298.53;4995013;28;20052;-86
2023/06/02 09:56:06;;;;;;;4.90;1.50;;;;;;;18.25;88.50;102291.03;4972895;28;20049;-82
2023/06/02 09:58:53;;;;;;;3.60;1.10;;;;;;;18.18;81.22;102291.38;5006557;28;20179;-78
2023/06/02 10:01:37;;;;;;;3.47;1.30;;;;;;;18.03;83.87;102287.66;5009828;28;20087;-81
2023/06/02 10:04:21;;;;;;;4.50;1.08;;;;;;;17.95;82.64;102284.53;5011934;28;20139;-81
2023/06/02 10:07:24;;;;;;;5.13;1.25;;;;;;;17.91;82.08;102291.88;5013852;28;20080;-81
2023/06/02 10:10:41;;;;;;;2.15;1.00;;;;;;;17.90;79.54;102284.78;5012698;28;20052;-79
2023/06/02 10:14:00;;;;;;;3.20;1.00;;;;;;;17.99;77.58;102295.97;4996153;28;20080;-80
2023/06/02 10:17:07;;;;;;;3.70;1.00;;;;;;;17.88;78.48;102289.34;5010619;28;20610;-81
2023/06/02 10:20:07;;;;;;;2.60;0.88;;;;;;;17.83;76.96;102283.41;5008693;28;20055;-81
2023/06/02 10:23:14;;;;;;;2.83;1.08;;;;;;;17.92;75.63;102285.56;5009038;28;20041;-81
2023/06/02 10:26:31;;;;;;;2.10;0.82;;;;;;;17.92;72.87;102282.00;4993142;28;20463;-80
2023/06/02 10:29:16;;;;;;;2.88;1.25;;;;;;;17.87;73.30;102286.78;4986097;28;20477;-81
2023/06/02 10:32:01;;;;;;;2.28;1.00;;;;;;;17.86;75.94;102290.41;5012371;28;20090;-80
2023/06/02 10:34:51;;;;;;;2.72;1.00;;;;;;;17.86;73.67;102290.41;4995883;28;20060;-81
2023/06/02 10:37:37;;;;;;;2.22;0.80;;;;;;;17.91;72.44;102288.31;5003531;28;20511;-82
2023/06/02 10:40:50;;;;;;;1.65;1.00;;;;;;;17.98;71.10;102279.00;5000679;28;20044;-79
2023/06/02 10:43:37;;;;;;;3.60;0.88;;;;;;;17.93;67.71;102289.13;5000982;28;20535;-81
2023/06/02 10:46:21;;;;;;;2.67;0.85;;;;;;;17.78;70.69;102288.97;5004648;28;20499;-80
2023/06/02 10:49:05;;;;;;;1.85;1.02;;;;;;;17.87;69.55;102300.16;5008007;28;20821;-80
2023/06/02 10:52:06;;;;;;;1.98;1.10;;;;;;;17.83;63.87;102279.84;4980239;28;20107;-80
2023/06/02 10:55:13;;;;;;;1.83;0.85;;;;;;;17.86;64.78;102285.91;4993320;28;20435;-80
2023/06/02 10:57:58;;;;;;;3.00;0.93;;;;;;;17.89;69.90;102285.75;5002250;28;20452;-81
2023/06/02 11:00:43;;;;;;;1.50;0.80;;;;;;;17.87;69.70;102284.94;4995331;28;20176;-80
2023/06/02 11:03:32;;;;;;;2.30;1.10;;;;;;;17.89;69.49;102291.09;5010212;28;20146;-81
2023/06/02 11:06:18;;;;;;;4.35;0.80;;;;;;;17.86;66.25;102295.75;5008034;28;20523;-80
2023/06/02 11:09:42;;;;;;;1.85;0.98;;;;;;;17.89;65.96;102287.56;4992432;28;20064;-80
2023/06/02 11:12:57;;;;;;;2.08;0.82;;;;;;;17.81;62.49;102295.13;4994901;28;20052;-80
2023/06/02 11:15:53;;;;;;;2.50;0.63;;;;;;;17.71;61.05;102292.09;4976079;28;20460;-81
2023/06/02 11:18:37;;;;;;;2.90;0.70;;;;;;;17.68;66.00;102286.88;4995188;28;20049;-80
2023/06/02 11:21:23;;;;;;;1.77;1.17;;;;;;;17.70;65.42;102277.81;5008397;28;20065;-80
2023/06/02 11:24:07;;;;;;;1.48;1.00;;;;;;;17.71;61.30;102284.91;5008000;28;20049;-80
2023/06/02 11:26:53;;;;;;;1.08;0.70;;;;;;;17.66;66.29;102284.28;5008673;28;20057;-81
2023/06/02 11:29:37;;;;;;;2.20;0.70;;;;;;;17.69;63.32;102289.47;4993246;28;20060;-81
2023/06/02 11:32:21;;;;;;;0.70;0.68;;;;;;;17.76;63.19;102282.00;4985150;28;20049;-82
2023/06/02 11:35:08;;;;;;;1.58;0.80;;;;;;;17.85;63.49;102289.53;4990170;28;20053;-80
2023/06/02 11:38:04;;;;;;;0.60;0.60;;;;;;;17.93;60.71;102286.44;4975815;28;21701;-81
2023/06/02 11:40:48;;;;;;;1.05;0.70;;;;;;;17.89;60.11;102279.50;4991328;28;20520;-81
2023/06/02 11:43:32;;;;;;;3.58;0.90;;;;;;;17.73;59.14;102283.03;4978352;28;20053;-81
2023/06/02 11:46:18;;;;;;;2.83;0.80;;;;;;;17.73;59.14;102285.69;4992577;28;20130;-82
2023/06/02 11:49:03;;;;;;;1.98;0.80;;;;;;;17.78;62.64;102277.41;4990532;28;20053;-82
2023/06/02 11:51:47;;;;;;;2.78;0.80;;;;;;;17.79;61.35;102284.50;4990695;28;20069;-81
2023/06/02 11:54:48;;;;;;;1.92;0.80;;;;;;;17.87;56.93;102282.28;4994970;28;20092;-80
2023/06/02 11:57:33;;;;;;;1.17;0.85;;;;;;;17.92;60.83;102288.25;4995943;28;20061;-82
2023/06/02 12:00:19;;;;;;;2.05;0.90;;;;;;;17.84;59.63;102285.13;4980514;28;20029;-82
2023/06/02 12:03:07;;;;;;;2.65;0.90;;;;;;;17.82;54.61;102283.47;4980708;28;20084;-83
2023/06/02 12:05:51;;;;;;;1.95;0.88;;;;;;;17.83;55.70;102288.75;4995901;28;20185;-82
2023/06/02 12:08:35;;;;;;;3.58;0.80;;;;;;;17.86;59.42;102279.69;4993869;28;20144;-81
2023/06/02 12:11:22;;;;;;;1.75;0.70;;;;;;;17.87;57.79;102286.78;4993320;28;20105;-81
2023/06/02 12:14:08;;;;;;;1.52;0.80;;;;;;;17.92;59.55;102273.97;4981307;28;20045;-82
2023/06/02 12:17:02;;;;;;;0.88;0.60;;;;;;;18.03;57.73;102270.75;4990958;28;20081;-82
2023/06/02 12:19:57;;;;;;;1.30;0.90;;;;;;;18.05;56.59;102272.38;4981583;28;20040;-82
2023/06/02 12:23:13;;;;;;;0.90;0.70;;;;;;;18.03;51.09;102268.91;4994340;28;20072;-81
2023/06/02 12:25:58;;;;;;;1.52;0.80;;;;;;;17.93;55.48;102273.06;4973896;28;20109;-76
2023/06/02 12:28:42;;;;;;;3.15;1.02;;;;;;;17.90;58.93;102267.84;4976234;28;20727;-80
2023/06/02 12:31:27;;;;;;;2.72;1.02;;;;;;;17.98;60.32;102270.13;5014087;28;20192;-81
2023/06/02 12:34:11;;;;;;;1.60;1.10;;;;;;;17.90;60.68;102271.41;5013591;28;20624;-81
2023/06/02 12:36:55;;;;;;;2.15;0.80;;;;;;;17.87;60.95;102273.38;5012383;28;20057;-81
2023/06/02 12:39:42;;;;;;;2.50;1.00;;;;;;;17.94;60.98;102276.59;4993755;28;20049;-83
2023/06/02 12:42:26;;;;;;;1.38;1.00;;;;;;;17.87;64.70;102281.41;4986810;28;20120;-81
2023/06/02 12:45:11;;;;;;;2.08;1.02;;;;;;;17.81;64.80;102287.09;5000669;28;20056;-81
2023/06/02 12:47:55;;;;;;;6.07;1.58;;;;;;;17.76;65.00;102277.50;5002479;28;20045;-81
2023/06/02 12:50:39;;;;;;;3.35;1.00;;;;;;;17.77;64.77;102283.72;5015028;28;20709;-78